createdAt,value
2023-01-07T00:02:09.159Z,-1.79
2023-01-07T00:04:39.083Z,-1.74
2023-01-07T00:07:11.945Z,-1.74
2023-01-07T00:09:42.005Z,-1.79
2023-01-07T00:12:12.762Z,-1.80
2023-01-07T00:14:42.810Z,-1.86
2023-01-07T00:17:12.804Z,-1.85
2023-01-07T00:19:42.990Z,-1.94
2023-01-07T00:22:16.095Z,-1.99
2023-01-07T00:24:48.078Z,-2.01
2023-01-07T00:27:18.043Z,-2.02
2023-01-07T00:29:48.061Z,-2.01
2023-01-07T00:32:17.961Z,-2.05
2023-01-07T00:34:47.825Z,-2.05
2023-01-07T00:37:36.224Z,-2.19
2023-01-07T00:40:06.624Z,-2.25
2023-01-07T00:42:53.892Z,-2.34
2023-01-07T00:45:24.077Z,-2.38
2023-01-07T00:50:46.398Z,-2.39
2023-01-07T00:53:16.560Z,-2.39
2023-01-07T00:55:46.757Z,-2.39
2023-01-07T00:58:24.220Z,-2.39
2023-01-07T01:00:58.483Z,-2.38
2023-01-07T01:03:30.641Z,-2.37
2023-01-07T01:06:07.045Z,-2.37
2023-01-07T01:08:37.041Z,-2.43
2023-01-07T01:11:08.320Z,-2.50
2023-01-07T01:13:39.300Z,-2.50
2023-01-07T01:16:14.980Z,-2.52
2023-01-07T01:18:45.555Z,-2.49
2023-01-07T01:21:19.272Z,-2.44
2023-01-07T01:23:49.243Z,-2.48
2023-01-07T01:26:20.185Z,-2.51
2023-01-07T01:28:50.326Z,-2.46
2023-01-07T01:31:20.236Z,-2.46
2023-01-07T01:33:50.146Z,-2.53
2023-01-07T01:36:21.508Z,-2.59
2023-01-07T01:38:51.418Z,-2.64
2023-01-07T01:41:21.536Z,-2.68
2023-01-07T01:43:51.998Z,-2.66
2023-01-07T01:46:33.026Z,-2.59
2023-01-07T01:49:06.703Z,-2.54
2023-01-07T01:51:43.469Z,-2.55
2023-01-07T01:54:16.925Z,-2.57
2023-01-07T01:56:51.804Z,-2.58
2023-01-07T01:59:26.125Z,-2.55
2023-01-07T02:01:56.177Z,-2.66
2023-01-07T02:04:28.960Z,-2.66
2023-01-07T02:07:13.858Z,-2.70
2023-01-07T02:09:43.644Z,-2.67
2023-01-07T02:12:23.873Z,-2.62
2023-01-07T02:15:11.722Z,-2.60
2023-01-07T02:18:11.669Z,-2.68
2023-01-07T02:21:02.764Z,-2.79
2023-01-07T02:24:15.904Z,-2.81
2023-01-07T02:27:23.798Z,-2.85
2023-01-07T02:30:33.658Z,-2.91
2023-01-07T02:33:28.959Z,-2.94
2023-01-07T02:36:47.903Z,-2.96
2023-01-07T02:39:42.360Z,-3.01
2023-01-07T02:42:27.778Z,-3.00
2023-01-07T02:45:07.117Z,-2.99
2023-01-07T02:47:40.824Z,-3.03
2023-01-07T02:50:12.580Z,-3.05
2023-01-07T02:52:42.485Z,-3.05
2023-01-07T02:55:16.862Z,-3.04
2023-01-07T02:58:33.355Z,-2.92
2023-01-07T03:01:43.729Z,-2.96
2023-01-07T03:04:34.527Z,-2.95
2023-01-07T03:07:30.402Z,-3.01
2023-01-07T03:10:08.079Z,-3.07
2023-01-07T03:12:42.925Z,-3.09
2023-01-07T03:15:20.467Z,-3.08
2023-01-07T03:17:57.698Z,-3.07
2023-01-07T03:20:28.313Z,-3.03
2023-01-07T03:23:01.065Z,-3.07
2023-01-07T03:25:36.426Z,-3.07
2023-01-07T03:28:09.163Z,-3.05
2023-01-07T03:30:40.575Z,-3.03
2023-01-07T03:33:17.098Z,-3.07
2023-01-07T03:35:51.585Z,-3.10
2023-01-07T03:38:25.725Z,-3.14
2023-01-07T03:40:57.610Z,-3.10
2023-01-07T03:43:26.258Z,-3.07
2023-01-07T03:45:58.646Z,-3.06
2023-01-07T03:51:46.402Z,-3.22
2023-01-07T03:54:16.979Z,-3.25
2023-01-07T03:56:46.944Z,-3.25
2023-01-07T03:59:16.885Z,-3.23
2023-01-07T04:01:46.876Z,-3.18
2023-01-07T04:04:16.790Z,-3.13
2023-01-07T04:06:48.240Z,-3.08
2023-01-07T04:09:19.365Z,-3.06
2023-01-07T04:11:49.229Z,-3.06
2023-01-07T04:14:19.117Z,-3.10
2023-01-07T04:16:51.513Z,-3.13
2023-01-07T04:19:22.042Z,-3.15
2023-01-07T04:21:53.497Z,-3.16
2023-01-07T04:24:23.365Z,-3.17
2023-01-07T04:26:53.122Z,-3.20
2023-01-07T04:29:22.877Z,-3.15
2023-01-07T04:31:52.878Z,-3.13
2023-01-07T04:34:22.782Z,-3.09
2023-01-07T04:36:54.218Z,-3.02
2023-01-07T04:39:24.063Z,-3.06
2023-01-07T04:41:53.990Z,-3.15
2023-01-07T04:44:23.748Z,-3.21
2023-01-07T04:46:53.513Z,-3.26
2023-01-07T04:49:23.366Z,-3.29
2023-01-07T04:51:54.730Z,-3.30
2023-01-07T04:54:24.559Z,-3.31
2023-01-07T04:56:54.683Z,-3.31
2023-01-07T04:59:24.606Z,-3.27
2023-01-07T05:01:54.593Z,-3.23
2023-01-07T05:04:24.386Z,-3.25
2023-01-07T05:06:55.890Z,-3.26
2023-01-07T05:09:25.723Z,-3.26
2023-01-07T05:11:55.664Z,-3.34
2023-01-07T05:14:25.546Z,-3.40
2023-01-07T05:16:55.541Z,-3.41
2023-01-07T05:19:25.470Z,-3.38
2023-01-07T05:21:56.838Z,-3.32
2023-01-07T05:24:26.799Z,-3.40
2023-01-07T05:26:56.765Z,-3.45
2023-01-07T05:29:26.618Z,-3.48
2023-01-07T05:31:56.505Z,-3.49
2023-01-07T05:34:26.487Z,-3.50
2023-01-07T05:36:57.884Z,-3.50
2023-01-07T05:39:28.251Z,-3.49
2023-01-07T05:41:58.260Z,-3.43
2023-01-07T05:44:28.085Z,-3.52
2023-01-07T05:46:57.915Z,-3.57
2023-01-07T05:49:27.722Z,-3.61
2023-01-07T05:51:59.126Z,-3.61
2023-01-07T05:54:28.923Z,-3.54
2023-01-07T05:56:58.858Z,-3.57
2023-01-07T05:59:28.677Z,-3.60
2023-01-07T06:01:58.544Z,-3.51
2023-01-07T06:04:28.263Z,-3.50
2023-01-07T06:06:59.678Z,-3.54
2023-01-07T06:09:30.358Z,-3.54
2023-01-07T06:12:00.590Z,-3.57
2023-01-07T06:14:30.453Z,-3.58
2023-01-07T06:17:00.338Z,-3.51
2023-01-07T06:19:30.188Z,-3.47
2023-01-07T06:22:01.538Z,-3.49
2023-01-07T06:24:31.427Z,-3.43
2023-01-07T06:27:01.158Z,-3.42
2023-01-07T06:29:30.861Z,-3.41
2023-01-07T06:32:01.161Z,-3.32
2023-01-07T06:34:31.081Z,-3.24
2023-01-07T06:37:02.540Z,-3.16
2023-01-07T06:39:32.426Z,-3.00
2023-01-07T06:42:02.409Z,-2.85
2023-01-07T06:44:32.348Z,-2.73
2023-01-07T06:47:02.145Z,-2.69
2023-01-07T06:51:46.089Z,-2.52
2023-01-07T06:54:16.056Z,-2.45
2023-01-07T06:56:45.860Z,-2.35
2023-01-07T06:59:15.990Z,-2.27
2023-01-07T07:01:46.778Z,-2.19
2023-01-07T07:04:16.699Z,-2.06
2023-01-07T07:06:48.069Z,-1.95
2023-01-07T07:09:18.045Z,-1.82
2023-01-07T07:11:47.746Z,-1.68
2023-01-07T07:14:17.678Z,-1.52
2023-01-07T07:16:47.462Z,-1.36
2023-01-07T07:19:17.287Z,-1.16
2023-01-07T07:21:49.916Z,-0.98
2023-01-07T07:24:19.924Z,-0.82
2023-01-07T07:26:49.889Z,-0.61
2023-01-07T07:29:21.736Z,-0.40
2023-01-07T07:31:51.719Z,-0.13
2023-01-07T07:34:21.688Z,0.13
2023-01-07T07:36:53.052Z,0.33
2023-01-07T07:39:22.964Z,0.57
2023-01-07T07:41:53.459Z,0.76
2023-01-07T07:44:23.481Z,0.95
2023-01-07T07:46:53.435Z,1.12
2023-01-07T07:49:23.258Z,1.32
2023-01-07T07:51:54.566Z,1.53
2023-01-07T07:54:24.597Z,1.76
2023-01-07T07:56:54.489Z,1.95
2023-01-07T07:59:27.492Z,2.15
2023-01-07T08:01:57.558Z,2.36
2023-01-07T08:04:29.166Z,2.61
2023-01-07T08:07:00.718Z,2.86
2023-01-07T08:09:30.605Z,3.13
2023-01-07T08:12:00.497Z,3.46
2023-01-07T08:14:30.442Z,3.80
2023-01-07T08:17:00.306Z,4.15
2023-01-07T08:19:30.188Z,4.52
2023-01-07T08:22:01.625Z,4.85
2023-01-07T08:24:31.399Z,5.16
2023-01-07T08:27:01.251Z,5.40
2023-01-07T08:29:31.146Z,5.69
2023-01-07T08:32:01.044Z,5.90
2023-01-07T08:34:30.997Z,6.07
2023-01-07T08:37:02.279Z,6.20
2023-01-07T08:39:32.281Z,6.31
2023-01-07T08:42:02.137Z,6.44
2023-01-07T08:44:32.824Z,6.49
2023-01-07T08:47:02.999Z,6.46
2023-01-07T08:49:33.362Z,6.48
2023-01-07T08:52:04.639Z,6.47
2023-01-07T08:54:34.466Z,6.39
2023-01-07T08:57:04.404Z,6.30
2023-01-07T08:59:34.326Z,6.19
2023-01-07T09:02:04.216Z,6.12
2023-01-07T09:04:34.324Z,5.98
2023-01-07T09:07:05.537Z,5.87
2023-01-07T09:09:35.337Z,5.79
2023-01-07T09:12:05.400Z,5.80
2023-01-07T09:14:35.224Z,5.83
2023-01-07T09:17:05.054Z,5.84
2023-01-07T09:19:35.059Z,5.78
2023-01-07T09:22:06.305Z,5.74
2023-01-07T09:24:36.260Z,5.74
2023-01-07T09:27:06.442Z,5.73
2023-01-07T09:29:37.104Z,5.75
2023-01-07T09:32:06.957Z,5.77
2023-01-07T09:34:38.220Z,5.84
2023-01-07T09:37:09.768Z,5.96
2023-01-07T09:39:39.890Z,6.05
2023-01-07T09:42:22.511Z,6.12
2023-01-07T09:45:07.105Z,6.18
2023-01-07T09:47:39.106Z,6.34
2023-01-07T09:51:50.164Z,6.56
2023-01-07T09:54:29.258Z,6.76
2023-01-07T09:56:59.203Z,6.83
2023-01-07T09:59:29.128Z,6.91
2023-01-07T10:02:09.564Z,6.91
2023-01-07T10:04:50.019Z,6.81
2023-01-07T10:07:34.304Z,6.73
2023-01-07T10:10:17.140Z,6.69
2023-01-07T10:13:00.101Z,6.74
2023-01-07T10:15:46.580Z,6.69
2023-01-07T10:18:33.559Z,6.62
2023-01-07T10:21:17.285Z,6.61
2023-01-07T10:23:54.159Z,6.64
2023-01-07T10:26:34.049Z,6.64
2023-01-07T10:29:11.583Z,6.66
2023-01-07T10:31:42.178Z,6.69
2023-01-07T10:34:18.899Z,6.73
2023-01-07T10:37:03.029Z,6.80
2023-01-07T10:39:47.580Z,6.79
2023-01-07T10:42:27.185Z,6.81
2023-01-07T10:45:53.944Z,6.83
2023-01-07T10:48:45.066Z,6.85
2023-01-07T10:51:41.404Z,6.88
2023-01-07T10:54:30.403Z,6.85
2023-01-07T10:57:11.358Z,6.90
2023-01-07T10:59:41.665Z,6.89
2023-01-07T11:02:19.969Z,6.90
2023-01-07T11:04:50.166Z,6.90
2023-01-07T11:07:32.029Z,6.92
2023-01-07T11:10:05.689Z,6.95
2023-01-07T11:12:43.481Z,6.95
2023-01-07T11:15:22.460Z,6.92
2023-01-07T11:17:56.370Z,6.91
2023-01-07T11:20:51.740Z,6.88
2023-01-07T11:23:44.274Z,6.88
2023-01-07T11:26:19.123Z,6.85
2023-01-07T11:28:56.563Z,6.90
2023-01-07T11:31:47.836Z,6.91
2023-01-07T11:34:27.632Z,6.86
2023-01-07T11:36:57.853Z,6.86
2023-01-07T11:39:31.023Z,6.85
2023-01-07T11:42:24.545Z,6.82
2023-01-07T11:45:16.152Z,6.80
2023-01-07T11:47:54.146Z,6.84
2023-01-07T11:50:31.402Z,6.86
2023-01-07T11:53:04.565Z,6.87
2023-01-07T11:55:34.528Z,6.86
2023-01-07T11:58:29.589Z,6.84
2023-01-07T12:01:18.779Z,6.83
2023-01-07T12:04:14.615Z,6.81
2023-01-07T12:06:49.347Z,6.78
2023-01-07T12:09:29.685Z,6.79
2023-01-07T12:12:02.851Z,6.86
2023-01-07T12:14:35.474Z,6.86
2023-01-07T12:17:15.720Z,6.85
2023-01-07T12:20:11.963Z,6.82
2023-01-07T12:22:58.540Z,6.85
2023-01-07T12:25:45.919Z,6.90
2023-01-07T12:28:19.444Z,6.90
2023-01-07T12:31:27.766Z,6.85
2023-01-07T12:34:09.790Z,6.81
2023-01-07T12:36:47.984Z,6.81
2023-01-07T12:39:27.905Z,6.81
2023-01-07T12:42:06.201Z,6.75
2023-01-07T12:44:41.334Z,6.70
2023-01-07T12:47:30.690Z,6.74
2023-01-07T12:51:55.626Z,6.74
2023-01-07T12:54:46.630Z,6.71
2023-01-07T12:57:23.826Z,6.67
2023-01-07T13:00:05.388Z,6.56
2023-01-07T13:02:45.510Z,6.47
2023-01-07T13:05:19.636Z,6.40
2023-01-07T13:08:05.099Z,6.32
2023-01-07T13:10:42.448Z,6.27
2023-01-07T13:13:22.739Z,6.27
2023-01-07T13:15:52.575Z,6.29
2023-01-07T13:18:24.016Z,6.22
2023-01-07T13:21:08.096Z,6.11
2023-01-07T13:24:08.917Z,6.04
2023-01-07T13:26:51.343Z,6.06
2023-01-07T13:29:59.641Z,6.01
2023-01-07T13:32:55.860Z,5.93
2023-01-07T13:36:11.995Z,5.87
2023-01-07T13:39:12.096Z,5.86
2023-01-07T13:42:03.403Z,5.90
2023-01-07T13:45:00.275Z,5.96
2023-01-07T13:47:44.075Z,5.95
2023-01-07T13:50:27.583Z,5.93
2023-01-07T13:53:06.227Z,5.89
2023-01-07T13:55:46.415Z,5.86
2023-01-07T13:58:46.336Z,5.77
2023-01-07T14:01:18.963Z,5.66
2023-01-07T14:03:51.245Z,5.61
2023-01-07T14:06:44.415Z,5.56
2023-01-07T14:09:37.342Z,5.49
2023-01-07T14:13:08.371Z,5.39
2023-01-07T14:16:11.248Z,5.33
2023-01-07T14:19:12.637Z,5.25
2023-01-07T14:22:06.986Z,5.15
2023-01-07T14:25:09.491Z,5.09
2023-01-07T14:28:01.231Z,4.96
2023-01-07T14:30:37.046Z,4.90
2023-01-07T14:33:08.907Z,4.84
2023-01-07T14:35:42.154Z,4.71
2023-01-07T14:38:59.797Z,4.50
2023-01-07T14:41:29.612Z,4.36
2023-01-07T14:44:30.804Z,4.23
2023-01-07T14:47:00.817Z,4.16
2023-01-07T14:49:59.069Z,4.06
2023-01-07T14:53:18.232Z,3.95
2023-01-07T14:56:28.350Z,3.81
2023-01-07T14:59:23.239Z,3.65
2023-01-07T15:02:33.204Z,3.54
2023-01-07T15:06:02.528Z,3.38
2023-01-07T15:09:04.843Z,3.26
2023-01-07T15:11:53.981Z,3.12
2023-01-07T15:14:49.079Z,3.01
2023-01-07T15:17:19.826Z,2.90
2023-01-07T15:19:50.029Z,2.79
2023-01-07T15:22:50.748Z,2.69
2023-01-07T15:25:36.639Z,2.54
2023-01-07T15:28:17.403Z,2.39
2023-01-07T15:31:01.431Z,2.35
2023-01-07T15:34:08.094Z,2.28
2023-01-07T15:36:44.306Z,2.13
2023-01-07T15:39:23.738Z,1.94
2023-01-07T15:41:56.200Z,1.76
2023-01-07T15:44:29.684Z,1.67
2023-01-07T15:47:01.198Z,1.59
2023-01-07T15:51:48.223Z,1.31
2023-01-07T15:54:36.027Z,1.29
2023-01-07T15:57:11.185Z,1.23
2023-01-07T15:59:46.554Z,1.16
2023-01-07T16:02:25.048Z,1.07
2023-01-07T16:04:57.763Z,0.98
2023-01-07T16:07:33.807Z,0.94
2023-01-07T16:10:04.249Z,0.85
2023-01-07T16:12:38.688Z,0.77
2023-01-07T16:15:33.167Z,0.71
2023-01-07T16:18:05.280Z,0.67
2023-01-07T16:20:39.146Z,0.60
2023-01-07T16:23:22.983Z,0.61
2023-01-07T16:25:58.805Z,0.57
2023-01-07T16:28:33.348Z,0.53
2023-01-07T16:31:07.395Z,0.52
2023-01-07T16:33:38.077Z,0.46
2023-01-07T16:36:15.606Z,0.38
2023-01-07T16:38:48.466Z,0.33
2023-01-07T16:41:23.482Z,0.29
2023-01-07T16:43:55.642Z,0.26
2023-01-07T16:46:28.859Z,0.29
2023-01-07T16:49:32.575Z,0.21
2023-01-07T16:52:14.452Z,0.13
2023-01-07T16:54:46.786Z,0.12
2023-01-07T16:57:34.590Z,0.13
2023-01-07T17:00:07.836Z,0.12
2023-01-07T17:02:43.960Z,0.05
2023-01-07T17:05:19.345Z,-0.04
2023-01-07T17:07:51.855Z,-0.10
2023-01-07T17:10:28.859Z,-0.08
2023-01-07T17:13:02.083Z,-0.15
2023-01-07T17:15:39.675Z,-0.18
2023-01-07T17:18:31.419Z,-0.19
2023-01-07T17:21:03.097Z,-0.19
2023-01-07T17:23:45.981Z,-0.18
2023-01-07T17:26:24.422Z,-0.24
2023-01-07T17:28:57.263Z,-0.32
2023-01-07T17:31:27.073Z,-0.40
2023-01-07T17:33:58.031Z,-0.46
2023-01-07T17:36:29.459Z,-0.51
2023-01-07T17:38:59.406Z,-0.54
2023-01-07T17:41:48.286Z,-0.59
2023-01-07T17:44:18.301Z,-0.59
2023-01-07T17:46:48.178Z,-0.55
2023-01-07T17:49:19.161Z,-0.50
2023-01-07T17:51:52.661Z,-0.47
2023-01-07T17:54:26.623Z,-0.48
2023-01-07T17:56:57.930Z,-0.54
2023-01-07T17:59:30.808Z,-0.62
2023-01-07T18:02:00.964Z,-0.69
2023-01-07T18:04:32.968Z,-0.78
2023-01-07T18:07:02.750Z,-0.79
2023-01-07T18:09:34.372Z,-0.82
2023-01-07T18:12:22.927Z,-0.85
2023-01-07T18:14:54.657Z,-0.84
2023-01-07T18:17:25.284Z,-0.85
2023-01-07T18:19:55.653Z,-0.89
2023-01-07T18:22:26.838Z,-0.93
2023-01-07T18:24:56.785Z,-0.99
2023-01-07T18:27:27.959Z,-0.96
2023-01-07T18:29:58.479Z,-0.94
2023-01-07T18:32:28.407Z,-0.97
2023-01-07T18:34:58.284Z,-0.99
2023-01-07T18:37:28.227Z,-1.04
2023-01-07T18:40:02.492Z,-1.04
2023-01-07T18:42:34.957Z,-1.08
2023-01-07T18:45:05.970Z,-1.13
2023-01-07T18:47:36.085Z,-1.14
2023-01-07T18:51:48.391Z,-1.11
2023-01-07T18:54:18.525Z,-1.09
2023-01-07T18:56:48.410Z,-1.10
2023-01-07T18:59:18.244Z,-1.14
2023-01-07T19:01:48.184Z,-1.18
2023-01-07T19:04:18.130Z,-1.27
2023-01-07T19:06:49.549Z,-1.29
2023-01-07T19:09:19.445Z,-1.30
2023-01-07T19:11:49.824Z,-1.30
2023-01-07T19:14:19.764Z,-1.31
2023-01-07T19:16:51.082Z,-1.29
2023-01-07T19:19:21.072Z,-1.24
2023-01-07T19:21:52.794Z,-1.29
2023-01-07T19:24:23.909Z,-1.34
2023-01-07T19:26:53.902Z,-1.34
2023-01-07T19:29:23.775Z,-1.29
2023-01-07T19:31:53.604Z,-1.36
2023-01-07T19:34:23.578Z,-1.41
2023-01-07T19:36:54.955Z,-1.43
2023-01-07T19:39:26.301Z,-1.40
2023-01-07T19:41:56.144Z,-1.38
2023-01-07T19:44:26.069Z,-1.32
2023-01-07T19:46:55.846Z,-1.30
2023-01-07T19:49:25.632Z,-1.38
2023-01-07T19:51:57.069Z,-1.40
2023-01-07T19:54:26.947Z,-1.42
2023-01-07T19:56:56.913Z,-1.45
2023-01-07T19:59:27.746Z,-1.50
2023-01-07T20:01:57.696Z,-1.54
2023-01-07T20:04:27.787Z,-1.56
2023-01-07T20:06:59.148Z,-1.59
2023-01-07T20:09:28.963Z,-1.58
2023-01-07T20:11:58.771Z,-1.57
2023-01-07T20:14:28.678Z,-1.58
2023-01-07T20:16:58.611Z,-1.61
2023-01-07T20:19:30.118Z,-1.67
2023-01-07T20:22:01.467Z,-1.70
2023-01-07T20:24:33.210Z,-1.72
2023-01-07T20:27:03.117Z,-1.74
2023-01-07T20:29:33.106Z,-1.71
2023-01-07T20:32:07.688Z,-1.66
2023-01-07T20:34:37.497Z,-1.68
2023-01-07T20:37:08.765Z,-1.73
2023-01-07T20:39:38.600Z,-1.73
2023-01-07T20:42:08.757Z,-1.71
2023-01-07T20:44:39.816Z,-1.74
2023-01-07T20:47:09.697Z,-1.80
2023-01-07T20:49:39.610Z,-1.82
2023-01-07T20:52:11.007Z,-1.87
2023-01-07T20:54:40.789Z,-1.90
2023-01-07T20:57:10.884Z,-1.87
2023-01-07T20:59:40.767Z,-1.87
2023-01-07T21:02:17.787Z,-1.87
2023-01-07T21:04:47.758Z,-1.89
2023-01-07T21:07:19.199Z,-1.89
2023-01-07T21:09:50.077Z,-1.91
2023-01-07T21:12:20.077Z,-1.92
2023-01-07T21:14:49.774Z,-1.94
2023-01-07T21:17:19.617Z,-1.95
2023-01-07T21:19:49.521Z,-1.98
2023-01-07T21:22:20.845Z,-2.01
2023-01-07T21:24:50.666Z,-2.03
2023-01-07T21:27:20.676Z,-2.05
2023-01-07T21:29:51.464Z,-2.05
2023-01-07T21:32:21.378Z,-2.09
2023-01-07T21:34:51.227Z,-2.09
2023-01-07T21:37:22.526Z,-2.10
2023-01-07T21:39:52.698Z,-2.09
2023-01-07T21:42:22.696Z,-2.05
2023-01-07T21:44:52.640Z,-2.06
2023-01-07T21:47:22.497Z,-2.05
2023-01-07T21:51:45.512Z,-2.08
2023-01-07T21:54:15.316Z,-2.11
2023-01-07T21:56:45.115Z,-2.09
2023-01-07T21:59:15.082Z,-2.09
2023-01-07T22:01:45.007Z,-2.14
2023-01-07T22:04:15.063Z,-2.14
2023-01-07T22:06:46.457Z,-2.17
2023-01-07T22:09:18.618Z,-2.17
2023-01-07T22:11:48.598Z,-2.13
2023-01-07T22:14:20.403Z,-2.16
2023-01-07T22:16:50.365Z,-2.21
2023-01-07T22:19:20.439Z,-2.24
2023-01-07T22:21:51.747Z,-2.27
2023-01-07T22:24:21.855Z,-2.28
2023-01-07T22:26:53.016Z,-2.27
2023-01-07T22:29:23.044Z,-2.23
2023-01-07T22:31:54.294Z,-2.13
2023-01-07T22:34:24.205Z,-2.14
2023-01-07T22:36:59.928Z,-2.18
2023-01-07T22:39:34.954Z,-2.21
2023-01-07T22:42:10.319Z,-2.23
2023-01-07T22:44:45.240Z,-2.28
2023-01-07T22:47:18.956Z,-2.33
2023-01-07T22:49:50.431Z,-2.34
2023-01-07T22:52:21.982Z,-2.34
2023-01-07T22:54:51.896Z,-2.37
2023-01-07T22:57:22.645Z,-2.39
2023-01-07T22:59:52.578Z,-2.44
2023-01-07T23:02:22.497Z,-2.39
2023-01-07T23:04:52.434Z,-2.32
2023-01-07T23:07:23.879Z,-2.39
2023-01-07T23:09:53.867Z,-2.41
2023-01-07T23:12:23.678Z,-2.30
2023-01-07T23:14:53.502Z,-2.27
2023-01-07T23:17:23.321Z,-2.34
2023-01-07T23:19:53.294Z,-2.43
2023-01-07T23:22:24.681Z,-2.50
2023-01-07T23:24:54.591Z,-2.52
2023-01-07T23:27:24.433Z,-2.54
2023-01-07T23:29:55.690Z,-2.53
2023-01-07T23:32:25.647Z,-2.52
2023-01-07T23:34:55.621Z,-2.55
2023-01-07T23:37:27.247Z,-2.58
2023-01-07T23:39:57.224Z,-2.55
2023-01-07T23:42:27.067Z,-2.57
2023-01-07T23:44:57.399Z,-2.66
2023-01-07T23:47:27.238Z,-2.65
2023-01-07T23:49:57.061Z,-2.65
2023-01-07T23:52:28.419Z,-2.66
2023-01-07T23:54:58.311Z,-2.72
2023-01-07T23:57:29.121Z,-2.70
2023-01-07T23:59:58.897Z,-2.71
